Time;durP1;ratioP1;P1;durP2;ratioP2;P2;SDS_P1;SDS_P2;PMS_P1;PMS_P2;Temp;Humidity;BMP_temperature;BMP_pressure;BME280_temperature;BME280_humidity;BME280_pressure;Samples;Min_cycle;Max_cycle;Signal;HPM_P1;HPM_P2
2021/06/12 00:00:12;;;;;;;3.20;2.20;;;20.10;74.20;;;;;;2089988;28;20364;-81
2021/06/12 00:01:13;;;;;;;2.67;2.13;;;20.10;74.20;;;;;;2080516;28;20041;-82
2021/06/12 00:02:14;;;;;;;2.72;2.13;;;20.10;74.20;;;;;;2080077;28;20562;-82
2021/06/12 00:03:14;;;;;;;4.53;2.20;;;20.10;74.20;;;;;;2081093;28;20034;-81
2021/06/12 00:04:15;;;;;;;3.47;2.45;;;20.10;74.30;;;;;;2080335;28;20025;-82
2021/06/12 00:05:16;;;;;;;3.63;2.00;;;20.10;74.30;;;;;;2088223;28;20027;-82
2021/06/12 00:06:17;;;;;;;3.00;2.10;;;20.10;74.30;;;;;;2079077;28;20033;-82
2021/06/12 00:07:17;;;;;;;3.42;2.50;;;20.10;74.40;;;;;;2081033;28;20041;-82
2021/06/12 00:08:18;;;;;;;2.97;2.00;;;20.10;74.40;;;;;;2079581;28;20029;-81
2021/06/12 00:09:19;;;;;;;3.83;2.22;;;20.10;74.50;;;;;;2080515;28;20541;-81
2021/06/12 00:10:23;;;;;;;3.28;2.15;;;20.10;74.50;;;;;;2088343;28;20033;-81
2021/06/12 00:11:24;;;;;;;3.53;2.22;;;20.10;74.60;;;;;;2096488;28;20107;-81
2021/06/12 00:12:24;;;;;;;3.83;2.28;;;20.10;74.60;;;;;;2088799;28;20067;-82
2021/06/12 00:13:25;;;;;;;3.05;2.20;;;20.00;74.60;;;;;;2081068;28;20123;-81
2021/06/12 00:14:26;;;;;;;3.38;2.28;;;20.00;74.60;;;;;;2072282;28;20037;-82
2021/06/12 00:15:28;;;;;;;2.80;1.98;;;20.00;74.60;;;;;;2071818;28;20129;-82
2021/06/12 00:16:29;;;;;;;3.67;2.35;;;20.00;74.70;;;;;;2088394;28;20033;-82
2021/06/12 00:17:29;;;;;;;4.20;2.60;;;20.00;74.80;;;;;;2079079;28;20052;-81
2021/06/12 00:18:30;;;;;;;3.65;2.50;;;20.00;74.80;;;;;;2080288;28;20037;-82
2021/06/12 00:19:30;;;;;;;3.33;2.28;;;20.00;74.90;;;;;;2088244;28;20025;-82
2021/06/12 00:20:37;;;;;;;3.75;2.30;;;20.00;74.90;;;;;;2088790;28;20103;-81
2021/06/12 00:21:38;;;;;;;3.92;2.60;;;20.00;75.00;;;;;;2088114;28;20024;-82
2021/06/12 00:22:42;;;;;;;3.35;2.28;;;20.00;75.00;;;;;;2089411;28;20379;-82
2021/06/12 00:23:44;;;;;;;3.83;2.78;;;19.90;75.10;;;;;;2088948;28;20399;-82
2021/06/12 00:24:44;;;;;;;3.30;2.45;;;19.90;75.20;;;;;;2087123;28;20487;-82
2021/06/12 00:25:46;;;;;;;2.92;2.13;;;19.90;75.20;;;;;;2090716;28;20032;-82
2021/06/12 00:26:47;;;;;;;3.72;2.35;;;19.90;75.30;;;;;;2089525;28;20071;-82
2021/06/12 00:27:48;;;;;;;3.33;2.45;;;19.90;75.40;;;;;;2090119;28;20582;-82
2021/06/12 00:28:49;;;;;;;3.30;2.40;;;19.80;75.40;;;;;;2080780;28;20049;-82
2021/06/12 00:29:50;;;;;;;3.53;2.30;;;19.80;75.50;;;;;;2079904;28;20507;-82
2021/06/12 00:30:51;;;;;;;4.63;2.60;;;19.80;75.50;;;;;;2072584;28;20416;-82
2021/06/12 00:31:51;;;;;;;3.55;2.55;;;19.80;75.60;;;;;;2080844;28;20112;-81
2021/06/12 00:32:53;;;;;;;3.55;2.50;;;19.80;75.70;;;;;;2089930;28;20583;-82
2021/06/12 00:33:54;;;;;;;4.38;2.95;;;19.70;75.70;;;;;;2089422;28;20025;-82
2021/06/12 00:34:55;;;;;;;5.22;2.53;;;19.80;75.80;;;;;;2095506;28;20033;-82
2021/06/12 00:35:55;;;;;;;3.95;2.50;;;19.70;75.90;;;;;;2090480;28;20056;-82
2021/06/12 00:36:56;;;;;;;3.33;2.35;;;19.70;75.90;;;;;;2089549;28;20055;-81
2021/06/12 00:37:57;;;;;;;3.72;2.50;;;19.70;76.00;;;;;;2090401;28;20120;-81
2021/06/12 00:38:57;;;;;;;3.33;2.53;;;19.60;76.00;;;;;;2087764;28;20040;-82
2021/06/12 00:39:58;;;;;;;3.90;2.72;;;19.60;76.10;;;;;;2081737;28;20038;-81
2021/06/12 00:40:59;;;;;;;3.67;2.65;;;19.60;76.10;;;;;;2081520;28;20049;-81
2021/06/12 00:41:59;;;;;;;4.47;2.80;;;19.60;76.20;;;;;;2081670;28;20030;-82
2021/06/12 00:43:00;;;;;;;4.18;2.60;;;19.60;76.20;;;;;;2073731;28;20128;-82
2021/06/12 00:44:01;;;;;;;3.42;2.33;;;19.60;76.30;;;;;;2073673;28;20025;-81
2021/06/12 00:45:01;;;;;;;3.83;2.65;;;19.60;76.30;;;;;;2081763;28;20056;-82
2021/06/12 00:46:02;;;;;;;4.03;2.70;;;19.60;76.40;;;;;;2073417;28;20042;-81
2021/06/12 00:47:03;;;;;;;3.70;2.38;;;19.60;76.40;;;;;;2073638;28;20117;-82
2021/06/12 00:48:04;;;;;;;4.80;2.90;;;19.60;76.50;;;;;;2073231;28;20026;-82
2021/06/12 00:49:05;;;;;;;4.07;2.75;;;19.50;76.40;;;;;;2083121;28;20079;-82
2021/06/12 00:50:07;;;;;;;5.82;3.13;;;19.50;76.50;;;;;;2089956;28;20025;-82
2021/06/12 00:51:08;;;;;;;4.88;2.97;;;19.50;76.60;;;;;;2088398;28;20025;-82
2021/06/12 00:52:09;;;;;;;4.32;2.78;;;19.50;76.60;;;;;;2090039;28;20029;-81
2021/06/12 00:53:09;;;;;;;4.75;2.78;;;19.50;76.70;;;;;;2080147;28;20474;-82
2021/06/12 00:54:10;;;;;;;3.72;2.72;;;19.50;76.70;;;;;;2073615;28;20022;-82
2021/06/12 00:55:14;;;;;;;4.32;3.20;;;19.50;76.70;;;;;;2065301;28;20072;-82
2021/06/12 00:56:18;;;;;;;4.28;2.90;;;19.50;76.80;;;;;;2081888;28;20022;-81
2021/06/12 00:57:20;;;;;;;3.22;2.55;;;19.40;76.80;;;;;;2089717;28;20017;-82
2021/06/12 00:58:21;;;;;;;3.95;2.90;;;19.40;76.80;;;;;;2081502;28;20602;-82
2021/06/12 00:59:22;;;;;;;4.22;2.75;;;19.40;76.80;;;;;;2065178;28;20053;-82
2021/06/12 01:00:23;;;;;;;3.67;2.85;;;19.40;76.90;;;;;;2073619;28;20044;-82
2021/06/12 01:01:24;;;;;;;4.13;3.15;;;19.40;77.00;;;;;;2090171;28;20025;-83
2021/06/12 01:02:25;;;;;;;5.07;3.00;;;19.40;76.90;;;;;;2094076;28;20033;-83
2021/06/12 01:03:28;;;;;;;4.22;2.78;;;19.40;77.00;;;;;;2079502;28;20093;-83
2021/06/12 01:04:28;;;;;;;5.20;2.95;;;19.40;77.00;;;;;;2078087;28;20128;-83
2021/06/12 01:05:29;;;;;;;4.18;2.80;;;19.40;77.10;;;;;;2079817;28;20022;-82
2021/06/12 01:06:30;;;;;;;4.75;3.17;;;19.40;77.10;;;;;;2077412;28;20053;-83
2021/06/12 01:07:30;;;;;;;4.13;2.90;;;19.40;77.10;;;;;;2085475;28;20060;-82
2021/06/12 01:08:31;;;;;;;4.65;3.20;;;19.40;77.10;;;;;;2072189;28;20026;-83
2021/06/12 01:09:32;;;;;;;4.63;3.05;;;19.30;77.10;;;;;;2074596;28;20032;-82
2021/06/12 01:10:32;;;;;;;5.00;2.92;;;19.40;77.20;;;;;;2073634;28;20096;-82
2021/06/12 01:11:51;;;;;;;5.13;3.22;;;19.30;77.10;;;;;;2083144;28;20038;-83
2021/06/12 01:13:07;;;;;;;4.03;2.90;;;19.30;77.20;;;;;;2092958;28;20086;-81
2021/06/12 01:14:14;;;;;;;4.78;3.03;;;19.30;77.20;;;;;;2087373;28;20017;-82
2021/06/12 01:15:15;;;;;;;4.80;2.92;;;19.30;77.20;;;;;;2090054;28;20017;-83
2021/06/12 01:16:31;;;;;;;4.75;3.22;;;19.30;77.20;;;;;;2089372;28;20391;-82
2021/06/12 01:17:42;;;;;;;5.72;3.22;;;19.30;77.30;;;;;;2088696;28;20033;-81
2021/06/12 01:18:46;;;;;;;5.43;3.00;;;19.30;77.30;;;;;;2091724;28;20029;-82
2021/06/12 01:20:20;;;;;;;4.03;2.90;;;19.20;77.30;;;;;;2090591;28;20023;-82
2021/06/12 01:21:43;;;;;;;4.15;2.90;;;19.30;77.30;;;;;;2095960;28;20609;-82
2021/06/12 01:22:58;;;;;;;4.45;2.85;;;19.20;77.20;;;;;;2094206;28;20029;-82
2021/06/12 01:24:35;;;;;;;5.03;2.75;;;19.30;77.40;;;;;;2097648;28;20107;-82
2021/06/12 01:26:08;;;;;;;4.63;2.80;;;19.20;77.30;;;;;;2095040;28;20028;-82
2021/06/12 01:27:24;;;;;;;4.00;2.80;;;19.20;77.20;;;;;;2093194;28;20348;-82
2021/06/12 01:28:55;;;;;;;3.67;2.38;;;19.20;77.20;;;;;;2098616;28;20030;-82
2021/06/12 01:30:08;;;;;;;3.35;2.45;;;19.20;77.30;;;;;;2097549;28;20059;-82
2021/06/12 01:31:11;;;;;;;5.30;2.60;;;19.20;77.30;;;;;;2098626;28;20501;-82
2021/06/12 01:32:14;;;;;;;4.45;2.80;;;19.20;77.30;;;;;;2102086;28;20119;-81
2021/06/12 01:33:15;;;;;;;4.05;2.83;;;19.20;77.30;;;;;;2093049;28;20580;-82
2021/06/12 01:34:17;;;;;;;4.60;2.97;;;19.10;77.40;;;;;;2085384;28;20103;-82
2021/06/12 01:35:26;;;;;;;4.13;3.03;;;19.20;77.50;;;;;;2085757;28;20022;-82
2021/06/12 01:36:29;;;;;;;4.45;3.22;;;19.20;77.50;;;;;;2102519;28;20028;-83
2021/06/12 01:37:32;;;;;;;5.28;2.97;;;19.20;77.50;;;;;;2082303;28;20021;-82
2021/06/12 01:38:37;;;;;;;5.15;3.20;;;19.20;77.50;;;;;;2081969;28;20419;-82
2021/06/12 01:39:39;;;;;;;4.90;3.03;;;19.20;77.50;;;;;;2080828;28;20501;-82
2021/06/12 01:40:43;;;;;;;4.65;3.28;;;19.20;77.60;;;;;;2082126;28;20029;-82
2021/06/12 01:41:45;;;;;;;4.50;2.97;;;19.30;77.60;;;;;;2097850;28;20055;-81
2021/06/12 01:42:48;;;;;;;3.90;2.80;;;19.30;77.60;;;;;;2088912;28;20029;-82
2021/06/12 01:43:51;;;;;;;4.35;2.78;;;19.30;77.60;;;;;;2087039;28;20075;-82
2021/06/12 01:44:53;;;;;;;4.57;3.10;;;19.30;77.60;;;;;;2097800;28;20017;-82
2021/06/12 01:45:53;;;;;;;5.05;3.25;;;19.30;77.60;;;;;;2098818;28;20400;-82
2021/06/12 01:46:56;;;;;;;4.88;3.40;;;19.30;77.60;;;;;;2089574;28;20154;-81
2021/06/12 01:47:57;;;;;;;4.88;3.20;;;19.30;77.60;;;;;;2081920;28;20403;-82
2021/06/12 01:49:00;;;;;;;5.57;3.05;;;19.30;77.60;;;;;;2080725;28;20399;-82
2021/06/12 01:50:05;;;;;;;4.75;3.15;;;19.30;77.60;;;;;;2081798;28;20112;-81
2021/06/12 01:51:06;;;;;;;5.55;3.20;;;19.30;77.60;;;;;;2081921;28;20032;-81
2021/06/12 01:52:07;;;;;;;5.45;3.38;;;19.30;77.60;;;;;;2088914;28;20053;-81
2021/06/12 01:53:10;;;;;;;5.63;3.30;;;19.30;77.60;;;;;;2081080;28;20079;-82
2021/06/12 01:54:12;;;;;;;4.88;3.20;;;19.30;77.60;;;;;;2080901;28;20021;-81
2021/06/12 01:55:15;;;;;;;5.43;3.45;;;19.30;77.70;;;;;;2087283;28;20475;-82
2021/06/12 01:56:16;;;;;;;5.47;3.05;;;19.30;77.70;;;;;;2089502;28;20104;-81
2021/06/12 01:57:19;;;;;;;4.85;3.13;;;19.30;77.70;;;;;;2088385;28;20029;-82
2021/06/12 01:58:22;;;;;;;5.07;3.15;;;19.30;77.80;;;;;;2081049;28;20112;-82
2021/06/12 01:59:25;;;;;;;5.18;3.28;;;19.30;77.80;;;;;;2089160;28;20088;-82
2021/06/12 02:00:27;;;;;;;5.05;2.95;;;19.30;77.80;;;;;;2089427;28;20021;-82
2021/06/12 02:01:28;;;;;;;5.25;3.03;;;19.30;77.80;;;;;;2089143;28;20029;-81
2021/06/12 02:02:29;;;;;;;5.75;3.30;;;19.30;77.80;;;;;;2089327;28;20043;-83
2021/06/12 02:03:32;;;;;;;4.93;3.13;;;19.30;77.90;;;;;;2097132;28;20082;-82
2021/06/12 02:04:37;;;;;;;3.80;2.83;;;19.30;77.90;;;;;;2080937;28;20076;-82
2021/06/12 02:05:39;;;;;;;4.43;2.75;;;19.30;77.90;;;;;;2082734;28;20391;-82
2021/06/12 02:06:41;;;;;;;5.38;3.10;;;19.30;77.90;;;;;;2080655;28;20033;-82
2021/06/12 02:07:44;;;;;;;4.55;3.00;;;19.30;78.00;;;;;;2073954;28;20072;-82
2021/06/12 02:08:46;;;;;;;5.53;3.30;;;19.30;78.00;;;;;;2081170;28;20083;-82
2021/06/12 02:09:51;;;;;;;5.63;3.30;;;19.30;78.00;;;;;;2089425;28;20033;-82
2021/06/12 02:10:52;;;;;;;4.18;2.90;;;19.30;78.00;;;;;;2081308;28;20369;-81
2021/06/12 02:11:53;;;;;;;4.40;3.20;;;19.30;78.00;;;;;;2088499;28;20215;-82
2021/06/12 02:12:55;;;;;;;4.57;3.03;;;19.30;78.10;;;;;;2088916;28;20403;-83
2021/06/12 02:13:56;;;;;;;4.82;3.03;;;19.30;78.10;;;;;;2089726;28;20021;-82
2021/06/12 02:14:58;;;;;;;5.05;3.20;;;19.30;78.00;;;;;;2073046;28;20116;-82
2021/06/12 02:15:59;;;;;;;5.13;3.35;;;19.30;78.10;;;;;;2072822;28;20439;-81
2021/06/12 02:17:01;;;;;;;4.65;3.22;;;19.30;78.00;;;;;;2079960;28;20087;-82
2021/06/12 02:18:06;;;;;;;5.07;3.28;;;19.30;78.10;;;;;;2081297;28;20112;-82
2021/06/12 02:19:09;;;;;;;4.93;3.17;;;19.30;78.10;;;;;;2089471;28;20028;-82
2021/06/12 02:20:13;;;;;;;4.85;3.20;;;19.30;78.10;;;;;;2084171;28;20411;-82
2021/06/12 02:21:16;;;;;;;4.72;3.05;;;19.30;78.20;;;;;;2076223;28;20030;-82
2021/06/12 02:22:18;;;;;;;5.15;3.40;;;19.30;78.20;;;;;;2088308;28;20356;-81
2021/06/12 02:23:21;;;;;;;4.65;3.08;;;19.30;78.80;;;;;;2081273;28;20188;-81
2021/06/12 02:24:22;;;;;;;4.85;3.30;;;19.30;78.40;;;;;;2088516;28;20489;-82
2021/06/12 02:25:25;;;;;;;4.60;3.20;;;19.30;78.30;;;;;;2097634;28;20116;-82
2021/06/12 02:26:28;;;;;;;6.20;3.25;;;19.30;78.30;;;;;;2089175;28;20028;-82
2021/06/12 02:27:30;;;;;;;4.63;3.17;;;19.30;78.40;;;;;;2080869;28;20049;-81
2021/06/12 02:28:35;;;;;;;5.70;3.30;;;19.20;78.40;;;;;;2081273;28;20519;-82
2021/06/12 02:29:36;;;;;;;5.10;2.83;;;19.20;78.40;;;;;;2089067;28;20474;-82
2021/06/12 02:31:05;;;;;;;4.68;3.22;;;19.20;78.40;;;;;;2089042;28;20029;-82
2021/06/12 02:32:09;;;;;;;5.13;2.90;;;19.20;78.40;;;;;;2086634;28;20024;-82
2021/06/12 02:33:14;;;;;;;4.93;2.95;;;19.20;78.40;;;;;;2090075;28;20036;-81
2021/06/12 02:34:15;;;;;;;5.30;3.25;;;19.20;78.40;;;;;;2088634;28;20132;-82
2021/06/12 02:35:15;;;;;;;4.10;2.65;;;19.20;78.50;;;;;;2081027;28;20021;-81
2021/06/12 02:36:16;;;;;;;5.47;3.35;;;19.20;78.50;;;;;;2089144;28;20033;-82
2021/06/12 02:37:17;;;;;;;3.92;2.75;;;19.20;79.10;;;;;;2089153;28;20033;-82
2021/06/12 02:38:17;;;;;;;5.88;3.50;;;19.20;78.40;;;;;;2080781;28;20502;-82
2021/06/12 02:39:18;;;;;;;5.70;3.50;;;19.20;78.40;;;;;;2072861;28;20073;-81
2021/06/12 02:40:19;;;;;;;4.97;3.05;;;19.20;78.50;;;;;;2072255;28;20404;-81
2021/06/12 02:41:22;;;;;;;5.50;3.00;;;19.20;78.50;;;;;;2097281;28;20055;-81
2021/06/12 02:42:23;;;;;;;4.75;3.17;;;19.20;79.10;;;;;;2090396;28;20128;-82
2021/06/12 02:43:24;;;;;;;4.85;3.10;;;19.20;78.40;;;;;;2088964;28;20021;-82
2021/06/12 02:44:24;;;;;;;6.18;3.30;;;19.20;78.50;;;;;;2089064;28;20135;-81
2021/06/12 02:45:25;;;;;;;6.18;3.20;;;19.20;78.50;;;;;;2089087;28;20029;-82
2021/06/12 02:46:30;;;;;;;5.20;2.90;;;19.20;79.10;;;;;;2078411;28;20030;-81
2021/06/12 02:47:34;;;;;;;6.50;3.40;;;19.20;78.50;;;;;;2089007;28;20029;-81
2021/06/12 02:48:36;;;;;;;6.15;3.03;;;19.20;78.50;;;;;;2088686;28;20017;-82
2021/06/12 02:49:39;;;;;;;6.13;3.22;;;19.20;78.40;;;;;;2085599;28;20130;-81
2021/06/12 02:50:42;;;;;;;6.78;3.25;;;19.20;78.40;;;;;;2085433;28;20021;-82
2021/06/12 02:51:48;;;;;;;5.05;3.00;;;19.20;78.40;;;;;;2084725;28;20036;-82
2021/06/12 02:52:51;;;;;;;5.25;3.15;;;19.20;78.50;;;;;;2082161;28;20018;-81
2021/06/12 02:53:54;;;;;;;5.70;3.25;;;19.20;78.50;;;;;;2080579;28;20332;-81
2021/06/12 02:54:58;;;;;;;4.93;2.80;;;19.10;78.50;;;;;;2088830;28;20479;-81
2021/06/12 02:56:01;;;;;;;5.82;3.15;;;19.10;78.60;;;;;;2090445;28;20498;-81
2021/06/12 02:57:02;;;;;;;4.93;3.13;;;19.10;78.60;;;;;;2090416;28;20452;-81
2021/06/12 02:58:04;;;;;;;5.10;2.80;;;19.10;78.60;;;;;;2094183;28;20410;-81
2021/06/12 02:59:10;;;;;;;6.13;3.42;;;19.10;78.60;;;;;;2091398;28;20425;-82
2021/06/12 03:00:13;;;;;;;6.55;3.40;;;19.10;78.60;;;;;;2092701;28;20025;-81
2021/06/12 03:01:15;;;;;;;5.57;3.00;;;19.10;78.50;;;;;;2093316;28;20582;-82
2021/06/12 03:02:17;;;;;;;5.18;3.10;;;19.10;78.50;;;;;;2080322;28;20063;-81
2021/06/12 03:03:19;;;;;;;4.93;2.95;;;19.10;78.60;;;;;;2081351;28;20108;-81
2021/06/12 03:04:21;;;;;;;5.00;2.95;;;19.10;78.60;;;;;;2088037;28;20426;-81
2021/06/12 03:05:25;;;;;;;6.40;3.13;;;19.10;78.60;;;;;;2088651;28;20029;-81
2021/06/12 03:06:27;;;;;;;6.88;3.58;;;19.10;78.60;;;;;;2090942;28;20023;-82
2021/06/12 03:07:30;;;;;;;6.20;2.88;;;19.10;78.60;;;;;;2089486;28;20025;-81
2021/06/12 03:08:42;;;;;;;5.32;2.97;;;19.10;78.60;;;;;;2084150;28;20099;-81
2021/06/12 03:09:44;;;;;;;5.45;3.22;;;19.10;78.60;;;;;;2083090;28;20025;-82
2021/06/12 03:10:46;;;;;;;5.55;3.20;;;19.10;78.60;;;;;;2088688;28;20028;-81
2021/06/12 03:11:49;;;;;;;4.70;3.05;;;19.10;78.60;;;;;;2079752;28;20048;-81
2021/06/12 03:12:51;;;;;;;5.70;3.00;;;19.10;78.60;;;;;;2080810;28;21783;-82
2021/06/12 03:13:53;;;;;;;6.25;3.10;;;19.10;78.60;;;;;;2073223;28;20022;-82
2021/06/12 03:14:58;;;;;;;7.03;3.10;;;19.10;78.70;;;;;;2088730;28;20033;-82
2021/06/12 03:16:00;;;;;;;5.13;3.05;;;19.10;78.60;;;;;;2089181;28;21803;-82
2021/06/12 03:17:01;;;;;;;4.93;2.67;;;19.10;78.60;;;;;;2090019;28;20033;-82
2021/06/12 03:18:03;;;;;;;6.07;3.28;;;19.10;78.60;;;;;;2080748;28;20029;-82
2021/06/12 03:19:05;;;;;;;6.35;3.20;;;19.10;78.60;;;;;;2074940;28;20034;-82
2021/06/12 03:20:07;;;;;;;5.25;3.08;;;19.10;78.60;;;;;;2082265;28;20029;-82
2021/06/12 03:21:08;;;;;;;5.75;3.10;;;19.10;78.70;;;;;;2088334;28;20036;-82
2021/06/12 03:22:11;;;;;;;5.97;3.20;;;19.10;78.70;;;;;;2081868;28;20029;-82
2021/06/12 03:23:13;;;;;;;5.35;2.80;;;19.10;78.70;;;;;;2074389;28;20033;-82
2021/06/12 03:24:14;;;;;;;5.35;3.38;;;19.10;78.70;;;;;;2073644;28;20030;-81
2021/06/12 03:25:18;;;;;;;6.05;3.10;;;19.10;79.40;;;;;;2074078;28;20025;-81
2021/06/12 03:26:20;;;;;;;6.07;3.22;;;19.10;78.70;;;;;;2088496;28;20017;-81
2021/06/12 03:27:22;;;;;;;6.55;3.72;;;19.10;78.70;;;;;;2088608;28;20029;-81
2021/06/12 03:28:23;;;;;;;6.28;3.38;;;19.10;78.70;;;;;;2072313;28;20500;-81
2021/06/12 03:29:24;;;;;;;5.50;3.00;;;19.10;78.80;;;;;;2071520;28;20080;-82
2021/06/12 03:30:26;;;;;;;5.25;2.95;;;19.10;78.80;;;;;;2080464;28;20061;-82
2021/06/12 03:31:28;;;;;;;6.22;3.22;;;19.10;78.90;;;;;;2088638;28;20025;-82
2021/06/12 03:32:30;;;;;;;5.05;2.70;;;19.10;78.80;;;;;;2085663;28;20438;-81
2021/06/12 03:33:31;;;;;;;5.57;2.95;;;19.10;78.90;;;;;;2086588;28;20041;-81
2021/06/12 03:34:32;;;;;;;5.13;3.10;;;19.10;78.90;;;;;;2089857;28;20064;-81
2021/06/12 03:35:33;;;;;;;6.38;3.30;;;19.10;78.90;;;;;;2090184;28;20040;-82
2021/06/12 03:36:35;;;;;;;7.10;3.38;;;19.10;79.00;;;;;;2088362;28;20580;-82
2021/06/12 03:37:36;;;;;;;5.20;2.90;;;19.10;78.90;;;;;;2079418;28;20037;-82
2021/06/12 03:38:37;;;;;;;6.47;2.95;;;19.10;79.00;;;;;;2072833;28;20030;-82
2021/06/12 03:39:38;;;;;;;4.38;2.88;;;19.10;79.00;;;;;;2080483;28;20067;-82
2021/06/12 03:40:39;;;;;;;5.18;2.95;;;19.10;79.00;;;;;;2079830;28;20538;-81
2021/06/12 03:41:40;;;;;;;5.53;2.92;;;19.10;79.00;;;;;;2069003;28;20080;-82
2021/06/12 03:42:41;;;;;;;4.90;2.72;;;19.10;79.00;;;;;;2064480;28;20030;-82
2021/06/12 03:43:42;;;;;;;5.68;2.97;;;19.10;79.00;;;;;;2072842;28;20428;-82
2021/06/12 03:44:44;;;;;;;7.10;3.47;;;19.10;79.00;;;;;;2081803;28;20040;-82
2021/06/12 03:45:46;;;;;;;4.63;2.90;;;19.10;79.00;;;;;;2082022;28;20096;-82
2021/06/12 03:46:49;;;;;;;5.75;2.80;;;19.10;79.00;;;;;;2084610;28;20029;-82
2021/06/12 03:47:51;;;;;;;5.10;2.88;;;19.10;79.00;;;;;;2092153;28;20028;-82
2021/06/12 03:48:52;;;;;;;5.35;2.95;;;19.10;79.00;;;;;;2087083;28;20032;-81
2021/06/12 03:49:54;;;;;;;5.20;2.80;;;19.10;79.00;;;;;;2078275;28;20038;-82
2021/06/12 03:50:55;;;;;;;5.15;2.90;;;19.10;79.00;;;;;;2064406;28;20027;-82
2021/06/12 03:51:57;;;;;;;4.45;2.50;;;19.10;79.00;;;;;;2081022;28;20037;-82
2021/06/12 03:52:58;;;;;;;5.60;3.03;;;19.10;79.00;;;;;;2088664;28;20033;-81
2021/06/12 03:54:00;;;;;;;6.55;3.03;;;19.10;79.00;;;;;;2080477;28;20025;-82
2021/06/12 03:55:03;;;;;;;4.35;2.65;;;19.10;79.00;;;;;;2079732;28;20047;-82
2021/06/12 03:56:03;;;;;;;5.25;3.03;;;19.10;79.60;;;;;;2080744;28;20033;-82
2021/06/12 03:57:05;;;;;;;5.35;2.97;;;19.10;79.00;;;;;;2088758;28;20368;-82
2021/06/12 03:58:05;;;;;;;6.38;3.15;;;19.10;79.00;;;;;;2087275;28;20123;-82
2021/06/12 03:59:07;;;;;;;5.22;2.83;;;19.20;79.00;;;;;;2088712;28;20025;-81
2021/06/12 04:00:10;;;;;;;7.60;3.15;;;19.20;79.00;;;;;;2090433;28;20021;-82
2021/06/12 04:01:15;;;;;;;4.80;2.90;;;19.10;79.00;;;;;;2098189;28;20498;-82
2021/06/12 04:02:16;;;;;;;5.53;2.80;;;19.20;79.00;;;;;;2091154;28;20044;-82
2021/06/12 04:03:17;;;;;;;4.80;2.85;;;19.20;79.00;;;;;;2089858;28;20120;-81
2021/06/12 04:04:19;;;;;;;5.40;3.17;;;19.10;79.20;;;;;;2090553;28;20020;-82
2021/06/12 04:05:20;;;;;;;5.93;3.33;;;19.20;78.90;;;;;;2090266;28;20029;-82
2021/06/12 04:06:21;;;;;;;5.30;3.00;;;19.20;79.00;;;;;;2097443;28;20090;-82
2021/06/12 04:07:21;;;;;;;5.85;2.80;;;19.20;78.90;;;;;;2082286;28;20037;-81
2021/06/12 04:08:22;;;;;;;4.85;2.75;;;19.20;79.00;;;;;;2073610;28;20018;-82
2021/06/12 04:09:23;;;;;;;4.30;2.78;;;19.20;79.00;;;;;;2080596;28;20029;-82
2021/06/12 04:10:23;;;;;;;5.15;2.58;;;19.20;79.00;;;;;;2081632;28;20423;-82
2021/06/12 04:11:24;;;;;;;5.38;3.03;;;19.20;78.90;;;;;;2089652;28;20048;-82
2021/06/12 04:12:25;;;;;;;3.78;2.38;;;19.20;78.90;;;;;;2090992;28;20017;-81
2021/06/12 04:13:26;;;;;;;4.90;2.92;;;19.20;78.90;;;;;;2090804;28;20040;-82
2021/06/12 04:14:26;;;;;;;4.95;2.95;;;19.30;79.00;;;;;;2089821;28;20114;-82
2021/06/12 04:15:28;;;;;;;4.72;2.72;;;19.20;78.90;;;;;;2090219;28;20029;-82
2021/06/12 04:16:28;;;;;;;4.97;2.90;;;19.20;78.90;;;;;;2090563;28;20538;-82
2021/06/12 04:17:29;;;;;;;5.10;2.60;;;19.30;79.00;;;;;;2074224;28;20038;-82
2021/06/12 04:18:30;;;;;;;5.95;2.90;;;19.30;78.90;;;;;;2081783;28;20057;-82
2021/06/12 04:19:31;;;;;;;4.55;2.50;;;19.30;78.90;;;;;;2080888;28;20383;-82
2021/06/12 04:20:31;;;;;;;5.22;2.97;;;19.20;78.80;;;;;;2090249;28;21867;-82
2021/06/12 04:21:32;;;;;;;5.70;2.78;;;19.30;78.90;;;;;;2090580;28;20061;-82
2021/06/12 04:22:33;;;;;;;5.47;2.90;;;19.30;78.90;;;;;;2081873;28;20087;-81
2021/06/12 04:23:33;;;;;;;5.15;2.65;;;19.30;78.90;;;;;;2074025;28;20302;-82
2021/06/12 04:24:35;;;;;;;5.75;3.25;;;19.30;79.00;;;;;;2081707;28;20041;-82
2021/06/12 04:25:35;;;;;;;5.70;3.20;;;19.30;79.00;;;;;;2088394;28;20036;-82
2021/06/12 04:26:36;;;;;;;5.38;3.38;;;19.20;78.90;;;;;;2090721;28;20033;-81
2021/06/12 04:27:37;;;;;;;5.45;3.40;;;19.20;78.90;;;;;;2091853;28;20039;-81
2021/06/12 04:28:38;;;;;;;6.50;3.53;;;19.20;78.90;;;;;;2090296;28;20021;-82
2021/06/12 04:29:38;;;;;;;5.53;3.30;;;19.20;78.90;;;;;;2081424;28;20141;-81
2021/06/12 04:30:39;;;;;;;5.07;3.30;;;19.20;78.90;;;;;;2090267;28;20025;-82
2021/06/12 04:31:40;;;;;;;6.47;3.47;;;19.20;78.90;;;;;;2098841;28;20059;-81
2021/06/12 04:32:40;;;;;;;5.95;3.50;;;19.30;79.00;;;;;;2090204;28;20029;-82
2021/06/12 04:33:41;;;;;;;5.93;3.53;;;19.20;78.90;;;;;;2073148;28;20034;-82
2021/06/12 04:34:42;;;;;;;5.72;3.83;;;19.30;79.00;;;;;;2081592;28;20022;-82
2021/06/12 04:35:42;;;;;;;6.05;3.70;;;19.30;79.00;;;;;;2088592;28;20063;-82
2021/06/12 04:36:43;;;;;;;7.82;4.50;;;19.30;79.00;;;;;;2081364;28;20040;-81
2021/06/12 04:37:44;;;;;;;5.78;4.10;;;19.30;79.00;;;;;;2090098;28;20016;-81
2021/06/12 04:38:45;;;;;;;6.63;4.82;;;19.30;79.00;;;;;;2098968;28;20029;-82
2021/06/12 04:39:45;;;;;;;6.85;4.40;;;19.30;79.00;;;;;;2089561;28;20059;-82
2021/06/12 04:40:46;;;;;;;6.88;4.40;;;19.20;78.90;;;;;;2081553;28;20078;-81
2021/06/12 04:41:47;;;;;;;7.13;4.60;;;19.20;78.90;;;;;;2089791;28;20025;-82
2021/06/12 04:42:47;;;;;;;6.43;4.57;;;19.30;79.00;;;;;;2076979;28;20029;-82
2021/06/12 04:43:48;;;;;;;6.65;4.80;;;19.30;79.00;;;;;;2078395;28;20026;-82
2021/06/12 04:44:49;;;;;;;6.00;4.43;;;19.30;79.00;;;;;;2089279;28;20033;-82
2021/06/12 04:45:49;;;;;;;7.10;4.72;;;19.30;79.00;;;;;;2089347;28;20028;-82
2021/06/12 04:46:50;;;;;;;7.75;4.53;;;19.20;79.00;;;;;;2081584;28;20046;-82
2021/06/12 04:47:51;;;;;;;6.35;4.60;;;19.20;78.90;;;;;;2081841;28;20388;-82
2021/06/12 04:48:52;;;;;;;7.90;4.90;;;19.30;79.00;;;;;;2090319;28;20025;-82
2021/06/12 04:49:53;;;;;;;7.93;5.28;;;19.20;78.90;;;;;;2076171;28;20492;-81
2021/06/12 04:50:53;;;;;;;7.07;4.40;;;19.30;79.10;;;;;;2083565;28;20117;-81
2021/06/12 04:51:54;;;;;;;6.75;4.70;;;19.30;79.00;;;;;;2098580;28;20028;-81
2021/06/12 04:52:55;;;;;;;7.30;4.45;;;19.30;78.90;;;;;;2098960;28;20127;-82
2021/06/12 04:53:55;;;;;;;7.80;4.97;;;19.20;78.90;;;;;;2090160;28;20040;-81
2021/06/12 04:54:56;;;;;;;6.72;4.30;;;19.30;78.90;;;;;;2089969;28;20041;-81
2021/06/12 04:55:58;;;;;;;5.82;4.55;;;19.30;78.90;;;;;;2089250;28;20445;-82
2021/06/12 04:56:59;;;;;;;7.07;4.78;;;19.30;79.00;;;;;;2088511;28;20033;-81
2021/06/12 04:58:00;;;;;;;6.78;4.60;;;19.30;79.00;;;;;;2073672;28;20017;-81
2021/06/12 04:59:01;;;;;;;6.80;4.72;;;19.30;78.90;;;;;;2081492;28;20044;-82
2021/06/12 05:00:07;;;;;;;7.18;4.70;;;19.30;79.00;;;;;;2080607;28;20779;-81
2021/06/12 05:01:07;;;;;;;6.38;4.68;;;19.30;79.00;;;;;;2080431;28;20048;-81
2021/06/12 05:02:08;;;;;;;7.32;4.75;;;19.30;78.90;;;;;;2098250;28;20409;-82
2021/06/12 05:03:09;;;;;;;7.05;4.78;;;19.20;78.90;;;;;;2098640;28;20036;-81
2021/06/12 05:04:09;;;;;;;7.03;4.63;;;19.20;78.90;;;;;;2086757;28;20032;-81
2021/06/12 05:05:11;;;;;;;7.55;5.15;;;19.20;78.90;;;;;;2081231;28;20116;-82
2021/06/12 05:06:11;;;;;;;6.47;4.93;;;19.30;79.00;;;;;;2081474;28;20037;-81
2021/06/12 05:07:12;;;;;;;6.85;4.20;;;19.20;78.90;;;;;;2087311;28;20731;-82
2021/06/12 05:08:14;;;;;;;7.28;4.65;;;19.20;78.90;;;;;;2098328;28;20036;-81
2021/06/12 05:09:15;;;;;;;7.75;5.03;;;19.20;79.00;;;;;;2098654;28;20109;-81
2021/06/12 05:10:16;;;;;;;6.68;4.63;;;19.20;78.90;;;;;;2090287;28;20029;-81
2021/06/12 05:11:17;;;;;;;8.23;4.65;;;19.20;78.80;;;;;;2081818;28;20037;-81
2021/06/12 05:12:19;;;;;;;7.78;5.00;;;19.20;78.80;;;;;;2090168;28;20120;-82
2021/06/12 05:13:20;;;;;;;6.78;4.65;;;19.20;78.90;;;;;;2073187;28;20029;-81
2021/06/12 05:14:21;;;;;;;6.88;5.00;;;19.20;79.00;;;;;;2073728;28;20026;-81
2021/06/12 05:15:27;;;;;;;8.38;5.22;;;19.20;79.10;;;;;;2086498;28;20434;-81
2021/06/12 05:16:27;;;;;;;7.55;5.10;;;19.20;79.10;;;;;;2079598;28;20407;-82
2021/06/12 05:17:29;;;;;;;7.00;4.60;;;19.20;79.00;;;;;;2089065;28;20032;-81
2021/06/12 05:18:47;;;;;;;5.93;4.40;;;19.20;79.00;;;;;;2098905;28;20082;-82
2021/06/12 05:19:48;;;;;;;6.53;4.35;;;19.20;79.00;;;;;;2090713;28;20036;-81
2021/06/12 05:20:49;;;;;;;6.18;4.25;;;19.20;78.90;;;;;;2083762;28;20052;-82
2021/06/12 05:21:49;;;;;;;7.50;4.72;;;19.20;78.90;;;;;;2085927;28;20040;-82
2021/06/12 05:22:50;;;;;;;6.85;4.53;;;19.20;78.90;;;;;;2093963;28;20368;-81
2021/06/12 05:23:51;;;;;;;7.55;4.43;;;19.20;78.80;;;;;;2093269;28;20035;-82
2021/06/12 05:24:53;;;;;;;7.63;4.40;;;19.20;78.80;;;;;;2085207;28;20029;-82
2021/06/12 05:25:53;;;;;;;6.32;4.20;;;19.20;78.80;;;;;;2091176;28;20024;-82